Cape Lambert — V7TC9 — position and weather

sailwx.info

Track history (hours):
 
Tides and Currents Weather Stations Pressure Air Temp Water Temp Dewpoint Dewpoint Depression Visibility Wind Speed Wind Dir Waves Ship Positions

Cape Lambert

Last reported at 2016-Sep-26 02:24 UTC. Time now 2016-Sep-28 10:15 UTC.
Position N 36°35' E 014°55'.

Length 290 m; draft 17.1 m.

Type: Cargo ship. MMSI: 538003781.

Date/timePositionNaut miles runAvg speedWind from/ knotsBaromVisibWave heightAir tempDewpointWater temp
2016-Sep-26 02:24N 36°35' E 014°55'910.8
2016-Sep-26 01:33N 36°37' E 014°44'1110.8
2016-Sep-26 00:33N 36°39' E 014°30'3411.4
2016-Sep-25 21:33N 36°45' E 013°48'  
2016-Sep-23 06:33N 36°34' W 000°45'3611.5
2016-Sep-23 03:23N 36°28' W 001°30'1011.5
2016-Sep-23 02:33N 36°26' W 001°42'1211.6
2016-Sep-23 01:33N 36°24' W 001°56'1211.9
2016-Sep-23 00:34N 36°22' W 002°10'1212.0
2016-Sep-22 23:33N 36°21' W 002°25'3611.7
2016-Sep-22 20:29N 36°15' W 003°09'  
Track history (hours):
 
Tides and Currents Weather Stations Pressure Air Temp Water Temp Dewpoint Dewpoint Depression Visibility Wind Speed Wind Dir Waves Ship Positions

Cape Lambert

Last reported at 2016-Sep-26 02:24 UTC. Time now 2016-Sep-28 10:15 UTC.
Position N 36°35' E 014°55'.

Length 290 m; draft 17.1 m.

Type: Cargo ship. MMSI: 538003781.

Date/timePositionNaut miles runAvg speedWind from/ knotsBaromVisibWave heightAir tempDewpointWater temp
2016-Sep-26 02:24N 36°35' E 014°55'910.8
2016-Sep-26 01:33N 36°37' E 014°44'1110.8
2016-Sep-26 00:33N 36°39' E 014°30'3411.4
2016-Sep-25 21:33N 36°45' E 013°48'  
2016-Sep-23 06:33N 36°34' W 000°45'3611.5
2016-Sep-23 03:23N 36°28' W 001°30'1011.5
2016-Sep-23 02:33N 36°26' W 001°42'1211.6
2016-Sep-23 01:33N 36°24' W 001°56'1211.9
2016-Sep-23 00:34N 36°22' W 002°10'1212.0
2016-Sep-22 23:33N 36°21' W 002°25'3611.7
2016-Sep-22 20:29N 36°15' W 003°09'  

Dump ship's entire track history